createdAt,value
2023-01-08T00:01:09.260Z,98964.47
2023-01-08T00:03:37.250Z,98967.88
2023-01-08T00:06:07.049Z,98963.13
2023-01-08T00:08:33.859Z,98957.78
2023-01-08T00:11:00.643Z,98961.06
2023-01-08T00:13:27.321Z,98956.81
2023-01-08T00:15:54.331Z,98960.09
2023-01-08T00:18:21.573Z,98957.56
2023-01-08T00:20:48.410Z,98957.78
2023-01-08T00:23:16.699Z,98962.69
2023-01-08T00:25:43.829Z,98948.84
2023-01-08T00:28:10.553Z,98952.50
2023-01-08T00:30:37.982Z,98941.34
2023-01-08T00:33:04.832Z,98957.56
2023-01-08T00:35:31.658Z,98956.50
2023-01-08T00:37:58.344Z,98955.41
2023-01-08T00:40:24.898Z,98953.34
2023-01-08T00:42:51.534Z,98952.28
2023-01-08T00:45:18.191Z,98958.56
2023-01-08T00:47:44.801Z,98958.13
2023-01-08T00:50:11.491Z,98961.53
2023-01-08T00:52:38.607Z,98958.59
2023-01-08T00:55:05.758Z,98956.06
2023-01-08T00:57:34.157Z,98957.50
2023-01-08T01:00:00.993Z,98970.25
2023-01-08T01:02:27.958Z,98972.19
2023-01-08T01:04:54.890Z,98977.31
2023-01-08T01:07:21.560Z,98978.38
2023-01-08T01:09:48.198Z,98983.13
2023-01-08T01:12:15.137Z,98983.50
2023-01-08T01:14:41.879Z,98953.31
2023-01-08T01:17:08.520Z,98987.50
2023-01-08T01:19:35.792Z,98973.06
2023-01-08T01:22:02.456Z,98980.22
2023-01-08T01:24:29.032Z,98977.09
2023-01-08T01:26:56.767Z,98970.41
2023-01-08T01:29:24.070Z,98979.75
2023-01-08T01:31:50.851Z,98975.50
2023-01-08T01:34:17.491Z,98980.25
2023-01-08T01:36:44.122Z,98980.50
2023-01-08T01:39:10.772Z,98978.53
2023-01-08T01:41:39.285Z,98977.22
2023-01-08T01:44:33.554Z,98976.00
2023-01-08T01:47:02.950Z,98969.56
2023-01-08T01:49:30.577Z,98967.88
2023-01-08T01:52:02.460Z,98961.44
2023-01-08T01:54:31.260Z,98963.16
2023-01-08T01:56:59.671Z,98955.00
2023-01-08T01:59:26.391Z,98970.28
2023-01-08T02:01:54.178Z,98961.59
2023-01-08T02:04:20.934Z,98956.72
2023-01-08T02:07:11.841Z,98963.88
2023-01-08T02:10:17.155Z,98959.03
2023-01-08T02:13:10.116Z,98961.69
2023-01-08T02:15:54.644Z,98953.56
2023-01-08T02:18:27.390Z,98956.22
2023-01-08T02:20:58.975Z,98952.00
2023-01-08T02:23:40.583Z,98966.16
2023-01-08T02:26:17.889Z,98959.13
2023-01-08T02:29:09.360Z,98956.63
2023-01-08T02:31:39.695Z,98954.06
2023-01-08T02:34:07.152Z,98955.38
2023-01-08T02:36:48.443Z,98946.66
2023-01-08T02:39:22.844Z,98948.22
2023-01-08T02:42:01.592Z,98938.66
2023-01-08T02:44:55.570Z,98935.25
2023-01-08T02:47:36.047Z,98934.41
2023-01-08T02:50:18.721Z,98924.97
2023-01-08T02:53:09.470Z,98935.16
2023-01-08T02:55:39.234Z,98926.66
2023-01-08T02:58:06.878Z,98937.72
2023-01-08T03:00:33.987Z,98931.28
2023-01-08T03:03:28.565Z,98929.81
2023-01-08T03:06:00.056Z,98928.38
2023-01-08T03:08:28.114Z,98925.22
2023-01-08T03:11:07.023Z,98921.59
2023-01-08T03:14:09.929Z,98933.00
2023-01-08T03:16:41.460Z,98927.41
2023-01-08T03:19:33.075Z,98913.94
2023-01-08T03:22:02.537Z,98923.75
2023-01-08T03:24:34.054Z,98900.28
2023-01-08T03:27:05.041Z,98923.75
2023-01-08T03:29:33.717Z,98912.75
2023-01-08T03:32:04.804Z,98921.34
2023-01-08T03:34:33.411Z,98917.34
2023-01-08T03:37:03.976Z,98921.34
2023-01-08T03:39:37.974Z,98916.16
2023-01-08T03:42:09.950Z,98921.34
2023-01-08T03:44:36.735Z,98915.41
2023-01-08T03:47:04.211Z,98924.50
2023-01-08T03:49:31.257Z,98923.28
2023-01-08T03:51:57.978Z,98929.47
2023-01-08T03:54:30.028Z,98923.03
2023-01-08T03:56:56.695Z,98929.81
2023-01-08T03:59:23.398Z,98924.84
2023-01-08T04:01:50.294Z,98924.00
2023-01-08T04:04:17.437Z,98919.88
2023-01-08T04:06:44.110Z,98926.06
2023-01-08T04:09:10.778Z,98928.00
2023-01-08T04:11:37.594Z,98928.88
2023-01-08T04:14:04.248Z,98926.91
2023-01-08T04:16:31.845Z,98932.13
2023-01-08T04:18:58.459Z,98926.56
2023-01-08T04:21:25.083Z,98935.50
2023-01-08T04:23:51.705Z,98932.00
2023-01-08T04:26:18.322Z,98941.19
2023-01-08T04:28:44.893Z,98933.91
2023-01-08T04:31:11.536Z,98939.97
2023-01-08T04:33:38.290Z,98929.03
2023-01-08T04:36:05.569Z,98942.47
2023-01-08T04:38:32.186Z,98946.22
2023-01-08T04:41:00.197Z,98947.56
2023-01-08T04:43:27.501Z,98953.53
2023-01-08T04:45:58.935Z,98936.03
2023-01-08T04:48:25.729Z,98942.81
2023-01-08T04:50:52.409Z,98950.59
2023-01-08T04:53:19.002Z,98945.63
2023-01-08T04:55:45.604Z,98950.19
2023-01-08T04:58:12.560Z,98956.84
2023-01-08T05:00:40.129Z,98958.78
2023-01-08T05:03:06.870Z,98949.06
2023-01-08T05:05:34.144Z,98946.72
2023-01-08T05:08:00.813Z,98952.66
2023-01-08T05:10:27.442Z,98963.22
2023-01-08T05:12:59.055Z,98964.91
2023-01-08T05:15:25.877Z,98965.88
2023-01-08T05:18:04.305Z,98951.91
2023-01-08T05:20:32.659Z,98969.06
2023-01-08T05:22:59.370Z,98965.31
2023-01-08T05:25:26.055Z,98970.19
2023-01-08T05:27:52.928Z,98967.38
2023-01-08T05:30:19.685Z,98969.06
2023-01-08T05:32:46.231Z,98960.38
2023-01-08T05:35:12.887Z,98978.53
2023-01-08T05:37:39.573Z,98972.78
2023-01-08T05:40:06.498Z,98976.00
2023-01-08T05:42:36.840Z,98970.19
2023-01-08T05:45:08.187Z,98984.94
2023-01-08T05:47:35.255Z,98992.94
2023-01-08T05:50:02.215Z,98995.16
2023-01-08T05:52:29.279Z,98989.31
2023-01-08T05:54:55.948Z,98985.94
2023-01-08T05:57:22.513Z,98990.72
2023-01-08T05:59:49.146Z,98986.66
2023-01-08T06:02:15.952Z,99000.25
2023-01-08T06:04:42.779Z,99003.13
2023-01-08T06:07:09.570Z,99006.88
2023-01-08T06:09:36.154Z,99008.16
2023-01-08T06:12:02.777Z,99016.53
2023-01-08T06:14:29.365Z,99013.78
2023-01-08T06:16:55.932Z,99012.59
2023-01-08T06:19:22.804Z,99021.38
2023-01-08T06:21:50.556Z,99008.69
2023-01-08T06:24:17.170Z,99015.00
2023-01-08T06:26:43.855Z,99010.78
2023-01-08T06:29:10.478Z,99016.25
2023-01-08T06:31:37.200Z,99023.28
2023-01-08T06:34:03.889Z,99018.81
2023-01-08T06:36:30.543Z,99025.25
2023-01-08T06:38:57.206Z,99024.91
2023-01-08T06:41:23.861Z,99014.25
2023-01-08T06:43:50.532Z,99015.50
2023-01-08T06:46:17.149Z,99018.78
2023-01-08T06:48:43.811Z,99029.25
2023-01-08T06:51:10.624Z,99018.94
2023-01-08T06:53:37.207Z,99032.28
2023-01-08T06:56:04.488Z,99033.75
2023-01-08T06:58:31.191Z,99034.50
2023-01-08T07:00:59.074Z,99041.31
2023-01-08T07:03:25.993Z,99050.66
2023-01-08T07:05:52.977Z,99044.59
2023-01-08T07:08:19.626Z,99042.13
2023-01-08T07:10:46.389Z,99050.25
2023-01-08T07:13:13.336Z,99051.59
2023-01-08T07:15:40.701Z,99040.50
2023-01-08T07:18:09.665Z,99038.78
2023-01-08T07:20:37.196Z,99044.84
2023-01-08T07:23:07.334Z,99049.16
2023-01-08T07:25:33.915Z,99044.56
2023-01-08T07:28:02.058Z,99045.25
2023-01-08T07:30:30.484Z,99039.84
2023-01-08T07:33:01.457Z,99055.13
2023-01-08T07:35:28.883Z,99059.19
2023-01-08T07:37:55.799Z,99054.41
2023-01-08T07:40:22.772Z,99068.19
2023-01-08T07:42:56.863Z,99059.03
2023-01-08T07:45:23.498Z,99072.00
2023-01-08T07:47:50.094Z,99073.75
2023-01-08T07:50:16.837Z,99069.03
2023-01-08T07:52:43.427Z,99074.41
2023-01-08T07:55:10.109Z,99072.88
2023-01-08T07:57:36.717Z,99079.38
2023-01-08T08:00:03.589Z,99078.97
2023-01-08T08:02:30.412Z,99089.16
2023-01-08T08:04:57.026Z,99074.91
2023-01-08T08:07:23.654Z,99086.63
2023-01-08T08:09:50.255Z,99086.59
2023-01-08T08:12:16.853Z,99093.06
2023-01-08T08:14:43.443Z,99091.06
2023-01-08T08:17:10.139Z,99095.72
2023-01-08T08:19:36.745Z,99091.16
2023-01-08T08:22:03.495Z,99086.47
2023-01-08T08:24:30.075Z,99083.56
2023-01-08T08:26:56.676Z,99098.03
2023-01-08T08:29:23.321Z,99090.28
2023-01-08T08:31:50.120Z,99092.72
2023-01-08T08:34:16.681Z,99088.34
2023-01-08T08:36:43.276Z,99090.25
2023-01-08T08:39:10.132Z,99094.31
2023-01-08T08:41:36.740Z,99090.09
2023-01-08T08:44:03.376Z,99086.00
2023-01-08T08:46:30.202Z,99092.84
2023-01-08T08:48:57.060Z,99079.88
2023-01-08T08:51:23.736Z,99086.63
2023-01-08T08:53:50.310Z,99086.03
2023-01-08T08:56:16.918Z,99087.72
2023-01-08T08:58:45.303Z,99088.22
2023-01-08T09:01:12.384Z,99083.09
2023-01-08T09:03:39.125Z,99081.94
2023-01-08T09:06:06.109Z,99081.03
2023-01-08T09:08:32.770Z,99080.75
2023-01-08T09:10:59.369Z,99088.31
2023-01-08T09:13:26.027Z,99076.47
2023-01-08T09:15:52.712Z,99075.59
2023-01-08T09:18:19.336Z,99080.31
2023-01-08T09:20:45.893Z,99074.81
2023-01-08T09:23:12.491Z,99064.13
2023-01-08T09:25:39.121Z,99070.50
2023-01-08T09:28:08.985Z,99071.06
2023-01-08T09:30:35.647Z,99080.19
2023-01-08T09:33:03.795Z,99070.28
2023-01-08T09:35:31.793Z,99071.63
2023-01-08T09:37:58.780Z,99061.53
2023-01-08T09:40:35.126Z,99064.75
2023-01-08T09:43:03.736Z,99060.00
2023-01-08T09:45:32.742Z,99052.06
2023-01-08T09:48:04.920Z,99048.94
2023-01-08T09:50:33.044Z,99042.44
2023-01-08T09:53:00.751Z,99053.09
2023-01-08T09:55:32.909Z,99043.88
2023-01-08T09:58:03.024Z,99036.44
2023-01-08T10:00:33.860Z,99037.56
2023-01-08T10:03:00.782Z,99026.75
2023-01-08T10:05:28.538Z,99029.56
2023-01-08T10:07:55.271Z,99030.78
2023-01-08T10:10:25.733Z,99029.00
2023-01-08T10:12:53.939Z,99027.94
2023-01-08T10:15:22.395Z,99020.38
2023-01-08T10:18:05.733Z,99022.84
2023-01-08T10:20:34.006Z,99010.75
2023-01-08T10:23:11.154Z,99006.25
2023-01-08T10:25:53.136Z,99003.16
2023-01-08T10:28:25.644Z,98998.97
2023-01-08T10:30:53.968Z,98998.88
2023-01-08T10:33:24.878Z,98990.63
2023-01-08T10:35:56.092Z,98985.53
2023-01-08T10:38:33.644Z,98988.31
2023-01-08T10:41:03.606Z,98984.75
2023-01-08T10:43:34.916Z,98983.91
2023-01-08T10:46:07.961Z,98970.19
2023-01-08T10:48:38.544Z,98975.50
2023-01-08T10:51:32.392Z,98979.34
2023-01-08T10:54:01.436Z,98987.16
2023-01-08T10:56:31.063Z,98979.09
2023-01-08T10:58:57.970Z,98972.91
2023-01-08T11:01:26.814Z,98977.94
2023-01-08T11:03:57.922Z,98978.00
2023-01-08T11:06:31.612Z,98978.31
2023-01-08T11:09:00.713Z,98973.09
2023-01-08T11:11:38.310Z,98971.06
2023-01-08T11:14:20.092Z,98970.00
2023-01-08T11:16:47.103Z,98960.09
2023-01-08T11:19:19.737Z,98975.28
2023-01-08T11:21:56.281Z,98952.91
2023-01-08T11:24:27.447Z,98950.84
2023-01-08T11:27:00.551Z,98953.22
2023-01-08T11:29:45.885Z,98962.53
2023-01-08T11:32:15.502Z,98953.31
2023-01-08T11:34:57.304Z,98947.19
2023-01-08T11:37:31.004Z,98945.47
2023-01-08T11:39:57.806Z,98941.50
2023-01-08T11:42:26.933Z,98948.72
2023-01-08T11:45:10.791Z,98941.09
2023-01-08T11:48:03.487Z,98937.75
2023-01-08T11:50:39.943Z,98943.75
2023-01-08T11:53:36.747Z,98943.88
2023-01-08T11:56:38.444Z,98937.28
2023-01-08T11:59:28.206Z,98936.13
2023-01-08T12:02:22.713Z,98936.44
2023-01-08T12:04:58.685Z,98934.75
2023-01-08T12:07:34.485Z,98926.81
2023-01-08T12:10:03.841Z,98924.06
2023-01-08T12:12:51.625Z,98923.41
2023-01-08T12:15:32.767Z,98930.41
2023-01-08T12:18:12.668Z,98924.03
2023-01-08T12:21:14.376Z,98924.44
2023-01-08T12:24:00.407Z,98925.22
2023-01-08T12:26:54.723Z,98919.88
2023-01-08T12:29:27.271Z,98914.66
2023-01-08T12:32:26.334Z,98915.25
2023-01-08T12:35:00.647Z,98905.97
2023-01-08T12:37:34.357Z,98909.81
2023-01-08T12:40:38.521Z,98912.03
2023-01-08T12:43:14.155Z,98912.91
2023-01-08T12:45:47.495Z,98916.28
2023-01-08T12:48:21.037Z,98916.53
2023-01-08T12:50:58.010Z,98916.31
2023-01-08T12:53:43.231Z,98904.56
2023-01-08T12:56:34.400Z,98916.53
2023-01-08T12:59:24.842Z,98913.00
2023-01-08T13:02:34.764Z,98917.44
2023-01-08T13:05:29.294Z,98919.28
2023-01-08T13:08:02.608Z,98913.22
2023-01-08T13:10:37.355Z,98913.25
2023-01-08T13:13:05.948Z,98907.78
2023-01-08T13:15:33.976Z,98909.75
2023-01-08T13:18:15.438Z,98904.59
2023-01-08T13:20:42.478Z,98916.66
2023-01-08T13:23:25.853Z,98919.34
2023-01-08T13:25:58.024Z,98914.63
2023-01-08T13:28:45.034Z,98905.94
2023-01-08T13:31:20.555Z,98912.09
2023-01-08T13:33:49.200Z,98916.56
2023-01-08T13:36:26.146Z,98911.34
2023-01-08T13:39:06.870Z,98900.81
2023-01-08T13:41:41.470Z,98910.84
2023-01-08T13:44:42.682Z,98909.72
2023-01-08T13:47:28.005Z,98907.59
2023-01-08T13:49:56.013Z,98904.16
2023-01-08T13:52:33.509Z,98912.53
2023-01-08T13:55:11.904Z,98902.91
2023-01-08T13:57:42.959Z,98891.84
2023-01-08T14:00:19.298Z,98913.63
2023-01-08T14:02:50.668Z,98907.59
2023-01-08T14:05:34.671Z,98890.69
2023-01-08T14:08:01.334Z,98882.81
2023-01-08T14:10:29.594Z,98886.41
2023-01-08T14:13:08.781Z,98887.72
2023-01-08T14:15:36.038Z,98884.78
2023-01-08T14:18:04.901Z,98882.31
2023-01-08T14:20:37.894Z,98885.59
2023-01-08T14:23:12.199Z,98885.81
2023-01-08T14:25:40.706Z,98874.34
2023-01-08T14:28:07.335Z,98886.03
2023-01-08T14:30:35.694Z,98881.66
2023-01-08T14:33:02.937Z,98878.09
2023-01-08T14:35:33.710Z,98874.75
2023-01-08T14:38:02.261Z,98883.19
2023-01-08T14:40:32.200Z,98872.53
2023-01-08T14:43:06.634Z,98868.34
2023-01-08T14:45:34.526Z,98862.06
2023-01-08T14:48:30.711Z,98876.88
2023-01-08T14:51:06.320Z,98874.47
2023-01-08T14:53:41.829Z,98873.22
2023-01-08T14:56:13.772Z,98870.31
2023-01-08T14:58:43.615Z,98869.84
2023-01-08T15:01:19.607Z,98867.19
2023-01-08T15:03:48.560Z,98877.06
2023-01-08T15:06:29.920Z,98874.81
2023-01-08T15:08:56.818Z,98869.06
2023-01-08T15:11:31.915Z,98873.31
2023-01-08T15:13:58.969Z,98865.19
2023-01-08T15:16:38.911Z,98869.81
2023-01-08T15:19:12.890Z,98868.13
2023-01-08T15:21:45.619Z,98854.25
2023-01-08T15:24:21.348Z,98876.72
2023-01-08T15:26:47.950Z,98869.03
2023-01-08T15:29:19.908Z,98867.66
2023-01-08T15:31:48.798Z,98859.97
2023-01-08T15:34:19.246Z,98870.31
2023-01-08T15:36:46.935Z,98864.00
2023-01-08T15:39:13.486Z,98866.72
2023-01-08T15:41:59.051Z,98870.69
2023-01-08T15:44:26.189Z,98865.94
2023-01-08T15:46:53.049Z,98843.16
2023-01-08T15:49:19.909Z,98864.19
2023-01-08T15:51:51.939Z,98866.44
2023-01-08T15:54:20.695Z,98858.97
2023-01-08T15:56:47.323Z,98862.50
2023-01-08T15:59:14.000Z,98862.38
2023-01-08T16:01:40.807Z,98864.09
2023-01-08T16:04:07.663Z,98869.44
2023-01-08T16:06:36.118Z,98860.72
2023-01-08T16:09:03.351Z,98862.09
2023-01-08T16:11:29.979Z,98865.13
2023-01-08T16:13:56.563Z,98862.56
2023-01-08T16:16:23.264Z,98858.22
2023-01-08T16:18:49.956Z,98869.06
2023-01-08T16:21:16.601Z,98853.16
2023-01-08T16:23:43.169Z,98859.63
2023-01-08T16:26:15.166Z,98856.69
2023-01-08T16:28:42.385Z,98861.38
2023-01-08T16:31:09.696Z,98861.63
2023-01-08T16:33:36.481Z,98856.69
2023-01-08T16:36:07.447Z,98859.97
2023-01-08T16:38:35.326Z,98864.34
2023-01-08T16:41:02.095Z,98859.09
2023-01-08T16:43:30.516Z,98865.31
2023-01-08T16:46:03.034Z,98866.72
2023-01-08T16:48:30.547Z,98857.69
2023-01-08T16:51:05.303Z,98861.09
2023-01-08T16:53:32.465Z,98864.59
2023-01-08T16:56:00.173Z,98865.59
2023-01-08T16:58:26.904Z,98870.97
2023-01-08T17:00:53.582Z,98860.97
2023-01-08T17:03:20.708Z,98840.53
2023-01-08T17:05:47.393Z,98874.06
2023-01-08T17:08:17.733Z,98870.66
2023-01-08T17:10:44.429Z,98866.28
2023-01-08T17:13:11.335Z,98863.06
2023-01-08T17:15:38.793Z,98867.00
2023-01-08T17:18:05.572Z,98874.88
2023-01-08T17:20:32.436Z,98868.66
2023-01-08T17:23:01.414Z,98863.84
2023-01-08T17:25:28.070Z,98875.13
2023-01-08T17:27:54.757Z,98873.69
2023-01-08T17:30:21.503Z,98884.00
2023-01-08T17:32:48.112Z,98885.13
2023-01-08T17:35:14.869Z,98886.84
2023-01-08T17:37:41.415Z,98887.25
2023-01-08T17:40:08.862Z,98892.00
2023-01-08T17:42:35.472Z,98894.00
2023-01-08T17:45:05.583Z,98889.50
2023-01-08T17:47:33.111Z,98896.81
2023-01-08T17:50:02.250Z,98899.34
2023-01-08T17:52:28.997Z,98897.94
2023-01-08T17:54:55.624Z,98894.63
2023-01-08T17:57:22.597Z,98894.50
2023-01-08T17:59:49.326Z,98895.47
2023-01-08T18:02:17.464Z,98893.66
2023-01-08T18:04:45.670Z,98897.28
2023-01-08T18:07:12.595Z,98890.00
2023-01-08T18:09:39.211Z,98897.44
2023-01-08T18:12:06.071Z,98894.63
2023-01-08T18:14:34.981Z,98895.88
2023-01-08T18:17:02.005Z,98894.63
2023-01-08T18:19:28.798Z,98905.56
2023-01-08T18:21:55.485Z,98899.50
2023-01-08T18:24:22.176Z,98900.47
2023-01-08T18:26:49.468Z,98905.38
2023-01-08T18:29:16.830Z,98905.38
2023-01-08T18:31:46.066Z,98901.63
2023-01-08T18:34:15.071Z,98905.72
2023-01-08T18:36:42.009Z,98890.75
2023-01-08T18:39:08.708Z,98901.75
2023-01-08T18:41:53.891Z,98895.63
2023-01-08T18:44:20.648Z,98901.00
2023-01-08T18:46:48.216Z,98904.19
2023-01-08T18:49:15.221Z,98904.59
2023-01-08T18:51:42.004Z,98910.94
2023-01-08T18:54:08.627Z,98905.13
2023-01-08T18:56:36.397Z,98914.28
2023-01-08T18:59:04.965Z,98909.22
2023-01-08T19:01:33.158Z,98912.63
2023-01-08T19:03:59.785Z,98907.09
2023-01-08T19:06:26.545Z,98909.63
2023-01-08T19:08:53.359Z,98915.13
2023-01-08T19:11:20.363Z,98904.16
2023-01-08T19:13:47.063Z,98911.19
2023-01-08T19:16:14.499Z,98910.94
2023-01-08T19:18:41.520Z,98906.63
2023-01-08T19:21:09.751Z,98881.19
2023-01-08T19:23:36.683Z,98902.75
2023-01-08T19:26:07.934Z,98908.16
2023-01-08T19:28:34.659Z,98913.22
2023-01-08T19:31:01.926Z,98905.59
2023-01-08T19:33:28.654Z,98916.84
2023-01-08T19:35:55.290Z,98913.44
2023-01-08T19:38:21.934Z,98904.16
2023-01-08T19:40:48.541Z,98910.13
2023-01-08T19:43:33.661Z,98907.84
2023-01-08T19:46:06.949Z,98915.72
2023-01-08T19:48:34.519Z,98917.03
2023-01-08T19:51:09.399Z,98915.72
2023-01-08T19:53:36.204Z,98920.78
2023-01-08T19:56:09.032Z,98918.22
2023-01-08T19:58:35.874Z,98908.34
2023-01-08T20:01:23.031Z,98906.91
2023-01-08T20:03:49.948Z,98908.75
2023-01-08T20:06:22.327Z,98909.41
2023-01-08T20:08:54.302Z,98907.59
2023-01-08T20:11:22.411Z,98908.56
2023-01-08T20:13:50.226Z,98905.16
2023-01-08T20:16:19.014Z,98905.31
2023-01-08T20:18:46.001Z,98904.00
2023-01-08T20:21:15.572Z,98902.44
2023-01-08T20:23:42.985Z,98904.91
2023-01-08T20:26:14.468Z,98904.91
2023-01-08T20:28:42.528Z,98898.56
2023-01-08T20:31:18.606Z,98894.66
2023-01-08T20:33:45.928Z,98901.13
2023-01-08T20:36:21.440Z,98891.94
2023-01-08T20:38:53.301Z,98890.50
2023-01-08T20:41:20.687Z,98904.72
2023-01-08T20:43:49.170Z,98906.66
2023-01-08T20:46:15.876Z,98898.78
2023-01-08T20:48:47.603Z,98897.69
2023-01-08T20:51:15.834Z,98899.38
2023-01-08T20:53:42.616Z,98899.38
2023-01-08T20:56:13.033Z,98893.88
2023-01-08T20:58:41.710Z,98901.69
2023-01-08T21:01:21.314Z,98905.81
2023-01-08T21:03:49.318Z,98903.72
2023-01-08T21:06:18.836Z,98902.47
2023-01-08T21:08:49.471Z,98903.41
2023-01-08T21:11:17.383Z,98899.88
2023-01-08T21:13:44.084Z,98906.06
2023-01-08T21:16:16.789Z,98889.28
2023-01-08T21:18:47.232Z,98896.25
2023-01-08T21:21:16.226Z,98891.88
2023-01-08T21:23:43.129Z,98899.75
2023-01-08T21:26:12.021Z,98896.63
2023-01-08T21:28:40.057Z,98886.66
2023-01-08T21:31:11.312Z,98896.44
2023-01-08T21:33:38.400Z,98897.53
2023-01-08T21:36:07.903Z,98894.53
2023-01-08T21:38:35.660Z,98899.19
2023-01-08T21:41:04.413Z,98895.41
2023-01-08T21:43:49.905Z,98888.69
2023-01-08T21:46:17.579Z,98893.31
2023-01-08T21:48:49.837Z,98904.06
2023-01-08T21:51:35.759Z,98905.34
2023-01-08T21:54:02.664Z,98899.31
2023-01-08T21:56:30.353Z,98896.50
2023-01-08T21:58:56.969Z,98889.53
2023-01-08T22:01:23.645Z,98891.75
2023-01-08T22:03:50.334Z,98899.81
2023-01-08T22:06:16.959Z,98901.03
2023-01-08T22:08:43.562Z,98900.06
2023-01-08T22:11:10.103Z,98897.69
2023-01-08T22:13:38.203Z,98901.03
2023-01-08T22:16:08.617Z,98900.94
2023-01-08T22:18:36.323Z,98900.34
2023-01-08T22:21:15.359Z,98900.41
2023-01-08T22:23:41.906Z,98897.59
2023-01-08T22:26:11.949Z,98894.13
2023-01-08T22:28:39.463Z,98901.69
2023-01-08T22:31:12.183Z,98900.44
2023-01-08T22:33:39.804Z,98880.59
2023-01-08T22:36:08.611Z,98896.50
2023-01-08T22:38:35.810Z,98884.25
2023-01-08T22:41:02.982Z,98894.09
2023-01-08T22:43:29.821Z,98889.13
2023-01-08T22:45:59.311Z,98899.66
2023-01-08T22:48:27.680Z,98894.97
2023-01-08T22:50:54.795Z,98894.25
2023-01-08T22:53:21.690Z,98901.09
2023-01-08T22:55:48.536Z,98902.75
2023-01-08T22:58:16.758Z,98902.31
2023-01-08T23:00:44.572Z,98896.16
2023-01-08T23:03:11.675Z,98897.91
2023-01-08T23:05:38.295Z,98907.47
2023-01-08T23:08:05.431Z,98905.44
2023-01-08T23:10:32.402Z,98897.47
2023-01-08T23:12:59.183Z,98898.53
2023-01-08T23:15:25.977Z,98897.22
2023-01-08T23:17:53.002Z,98893.03
2023-01-08T23:20:21.065Z,98897.28
2023-01-08T23:22:48.186Z,98902.63
2023-01-08T23:25:15.556Z,98895.09
2023-01-08T23:27:42.174Z,98904.44
2023-01-08T23:30:09.406Z,98908.91
2023-01-08T23:32:35.992Z,98921.41
2023-01-08T23:35:02.542Z,98916.63
2023-01-08T23:37:29.122Z,98924.25
2023-01-08T23:39:55.786Z,98917.84
2023-01-08T23:42:22.336Z,98914.31
2023-01-08T23:44:49.799Z,98900.25
2023-01-08T23:47:16.420Z,98903.78
2023-01-08T23:49:42.985Z,98906.19
2023-01-08T23:52:09.715Z,98902.94
2023-01-08T23:54:36.376Z,98908.97
2023-01-08T23:57:06.048Z,98906.06
2023-01-08T23:59:33.021Z,98912.16
